Time;durP1;ratioP1;P1;durP2;ratioP2;P2;SDS_P1;SDS_P2;PMS_P1;PMS_P2;Temp;Humidity;BMP_temperature;BMP_pressure;BME280_temperature;BME280_humidity;BME280_pressure;Samples;Min_cycle;Max_cycle;Signal;HPM_P1;HPM_P2
2022/08/03 00:00:05;;;;;;;1.25;0.70;;;26.40;53.10;;;;;;5041044;28;20029;-47
2022/08/03 00:02:30;;;;;;;1.67;0.85;;;26.40;53.10;;;;;;5041036;28;20020;-47
2022/08/03 00:04:56;;;;;;;2.10;0.90;;;26.40;53.00;;;;;;5042173;28;20409;-47
2022/08/03 00:07:22;;;;;;;1.75;1.00;;;26.40;53.00;;;;;;5042265;28;20040;-48
2022/08/03 00:09:47;;;;;;;1.23;0.80;;;26.40;52.90;;;;;;5040775;28;20036;-47
2022/08/03 00:12:13;;;;;;;2.17;1.08;;;26.40;52.90;;;;;;5042366;28;20029;-48
2022/08/03 00:14:39;;;;;;;1.70;0.95;;;26.40;52.90;;;;;;5040320;28;20037;-47
2022/08/03 00:17:04;;;;;;;1.60;0.90;;;26.40;52.80;;;;;;5040741;28;20025;-47
2022/08/03 00:19:30;;;;;;;2.47;1.20;;;26.40;52.80;;;;;;5040658;28;20025;-48
2022/08/03 00:21:56;;;;;;;1.77;1.02;;;26.40;53.50;;;;;;5042207;28;20021;-47
2022/08/03 00:24:21;;;;;;;2.03;1.08;;;26.40;52.80;;;;;;5041980;28;20106;-48
2022/08/03 00:26:47;;;;;;;1.80;1.10;;;26.40;52.60;;;;;;5041412;28;20025;-47
2022/08/03 00:29:12;;;;;;;1.80;1.00;;;26.40;52.60;;;;;;5042165;28;20033;-47
2022/08/03 00:31:39;;;;;;;1.92;1.23;;;26.40;52.60;;;;;;5039848;28;20124;-48
2022/08/03 00:34:05;;;;;;;1.77;1.00;;;26.40;52.30;;;;;;5040761;28;20554;-47
2022/08/03 00:36:31;;;;;;;1.90;1.00;;;26.40;52.30;;;;;;5041250;28;20032;-47
2022/08/03 00:38:56;;;;;;;1.98;1.10;;;26.40;52.30;;;;;;5042080;28;20051;-48
2022/08/03 00:41:22;;;;;;;1.90;1.10;;;26.40;52.30;;;;;;5041676;28;20659;-48
2022/08/03 00:43:48;;;;;;;2.35;1.10;;;26.40;52.10;;;;;;5038776;28;20467;-48
2022/08/03 00:46:14;;;;;;;1.33;0.82;;;26.40;52.10;;;;;;5041103;28;20098;-48
2022/08/03 00:48:40;;;;;;;1.80;1.00;;;26.30;52.00;;;;;;5041088;28;20139;-47
2022/08/03 00:51:06;;;;;;;2.58;1.20;;;26.30;52.00;;;;;;5041155;28;20036;-47
2022/08/03 00:53:34;;;;;;;2.10;0.90;;;26.30;52.00;;;;;;5040179;28;20404;-48
2022/08/03 00:56:00;;;;;;;2.28;1.20;;;26.30;51.80;;;;;;5040013;28;20560;-47
2022/08/03 00:58:25;;;;;;;1.50;0.88;;;26.30;51.90;;;;;;5038749;28;20112;-47
2022/08/03 01:00:51;;;;;;;2.08;1.10;;;26.30;51.80;;;;;;5039932;28;20033;-47
2022/08/03 01:03:17;;;;;;;1.88;0.85;;;26.30;51.70;;;;;;5041363;28;20036;-46
2022/08/03 01:05:52;;;;;;;2.00;1.10;;;26.30;52.40;;;;;;5039646;28;20087;-47
2022/08/03 01:08:27;;;;;;;2.20;1.00;;;26.30;51.70;;;;;;5040851;28;20107;-47
2022/08/03 01:11:34;;;;;;;1.73;0.95;;;26.30;51.60;;;;;;5035752;28;20020;-47
2022/08/03 01:14:08;;;;;;;2.25;0.98;;;26.40;51.60;;;;;;5020090;28;20348;-47
2022/08/03 01:16:47;;;;;;;1.67;0.98;;;26.30;51.80;;;;;;5036677;28;20050;-47
2022/08/03 01:20:04;;;;;;;1.45;0.75;;;26.30;51.80;;;;;;5039961;28;20040;-48
2022/08/03 01:22:57;;;;;;;2.05;1.10;;;26.30;51.70;;;;;;5020466;28;20029;-47
2022/08/03 01:25:43;;;;;;;2.30;1.10;;;26.30;51.70;;;;;;5038258;28;20064;-47
2022/08/03 01:28:33;;;;;;;1.85;1.02;;;26.30;51.70;;;;;;5039960;28;20036;-48
2022/08/03 01:31:04;;;;;;;1.63;0.90;;;26.30;51.70;;;;;;5039672;28;20702;-47
2022/08/03 01:33:39;;;;;;;2.65;1.10;;;26.30;51.60;;;;;;5041207;28;20032;-48
2022/08/03 01:36:21;;;;;;;2.13;1.23;;;26.30;51.60;;;;;;5041179;28;20041;-47
2022/08/03 01:38:56;;;;;;;1.60;0.90;;;26.30;51.60;;;;;;5040461;28;20021;-47
2022/08/03 01:41:32;;;;;;;2.17;1.20;;;26.30;51.50;;;;;;5040439;28;20428;-47
2022/08/03 01:44:01;;;;;;;1.42;0.88;;;26.30;51.50;;;;;;5040152;28;20030;-48
2022/08/03 01:46:29;;;;;;;1.88;1.05;;;26.30;51.40;;;;;;5039109;28;20422;-47
2022/08/03 01:48:56;;;;;;;1.75;0.98;;;26.30;51.50;;;;;;5039659;28;20032;-48
2022/08/03 01:51:22;;;;;;;1.98;1.15;;;26.20;51.40;;;;;;5041032;28;20017;-48
2022/08/03 01:53:50;;;;;;;2.05;1.10;;;26.30;51.40;;;;;;5039134;28;20017;-48
2022/08/03 01:56:17;;;;;;;2.30;1.17;;;26.30;51.50;;;;;;5040412;28;20097;-47
2022/08/03 01:58:44;;;;;;;2.42;1.33;;;26.30;51.40;;;;;;5040080;28;20161;-48
2022/08/03 02:01:12;;;;;;;2.05;1.17;;;26.30;51.30;;;;;;5040538;28;20028;-47
2022/08/03 02:03:41;;;;;;;1.75;0.90;;;26.30;51.20;;;;;;5040971;28;20021;-48
2022/08/03 02:06:10;;;;;;;2.20;1.05;;;26.30;51.30;;;;;;5039210;28;20027;-47
2022/08/03 02:08:38;;;;;;;2.67;1.27;;;26.30;51.30;;;;;;5041138;28;20021;-48
2022/08/03 02:11:04;;;;;;;1.83;0.98;;;26.30;51.20;;;;;;5039676;28;20088;-47
2022/08/03 02:13:33;;;;;;;2.20;1.17;;;26.30;51.30;;;;;;5040514;28;20136;-49
2022/08/03 02:15:59;;;;;;;2.00;1.10;;;26.30;51.40;;;;;;5039492;28;20562;-48
2022/08/03 02:18:26;;;;;;;1.80;1.10;;;26.30;52.10;;;;;;5039802;28;20396;-48
2022/08/03 02:20:53;;;;;;;1.38;0.95;;;26.30;51.50;;;;;;5041320;28;20013;-48
2022/08/03 02:23:18;;;;;;;2.05;1.20;;;26.30;51.40;;;;;;5040933;28;20029;-47
2022/08/03 02:25:56;;;;;;;1.73;1.10;;;26.30;51.40;;;;;;5039379;28;20052;-47
2022/08/03 02:28:28;;;;;;;1.58;1.00;;;26.30;51.30;;;;;;5039656;28;20120;-47
2022/08/03 02:30:55;;;;;;;1.70;0.90;;;26.30;51.30;;;;;;5040370;28;20033;-47
2022/08/03 02:33:30;;;;;;;1.63;1.00;;;26.30;51.30;;;;;;5040477;28;20186;-46
2022/08/03 02:35:56;;;;;;;1.42;0.88;;;26.20;51.20;;;;;;5039252;28;20098;-47
2022/08/03 02:38:26;;;;;;;1.55;1.02;;;26.30;51.30;;;;;;5040826;28;20036;-46
2022/08/03 02:40:56;;;;;;;1.88;1.13;;;26.30;51.10;;;;;;5040581;28;20025;-47
2022/08/03 02:43:24;;;;;;;2.00;1.10;;;26.20;51.10;;;;;;5042955;28;20285;-48
2022/08/03 02:45:51;;;;;;;1.92;1.10;;;26.20;51.10;;;;;;5041146;28;20332;-47
2022/08/03 02:48:22;;;;;;;1.65;0.98;;;26.30;51.10;;;;;;5043946;28;20556;-48
2022/08/03 02:50:50;;;;;;;2.70;1.10;;;26.30;51.10;;;;;;5042647;28;20044;-47
2022/08/03 02:53:16;;;;;;;1.92;1.13;;;26.20;51.10;;;;;;5043984;28;20096;-48
2022/08/03 02:55:44;;;;;;;1.92;1.20;;;26.20;51.00;;;;;;5043210;28;20033;-47
2022/08/03 02:58:12;;;;;;;2.80;1.17;;;26.20;51.00;;;;;;5043017;28;20037;-47
2022/08/03 03:00:39;;;;;;;2.05;1.10;;;26.20;51.10;;;;;;5042271;28;20025;-48
2022/08/03 03:03:06;;;;;;;1.73;1.08;;;26.20;51.10;;;;;;5043525;28;20032;-47
2022/08/03 03:05:32;;;;;;;1.85;1.02;;;26.20;51.20;;;;;;5043452;28;20025;-47
2022/08/03 03:07:58;;;;;;;1.98;1.20;;;26.20;51.20;;;;;;5043324;28;20025;-48
2022/08/03 03:10:24;;;;;;;1.80;1.10;;;26.30;51.10;;;;;;5042685;28;20473;-47
2022/08/03 03:12:54;;;;;;;1.63;1.05;;;26.20;51.20;;;;;;5041934;28;20060;-47
2022/08/03 03:15:21;;;;;;;1.95;1.10;;;26.20;51.00;;;;;;5040723;28;20500;-47
2022/08/03 03:17:49;;;;;;;2.05;1.10;;;26.20;51.00;;;;;;5043945;28;20025;-48
2022/08/03 03:20:16;;;;;;;4.38;1.55;;;26.20;50.90;;;;;;5043248;28;20013;-48
2022/08/03 03:22:43;;;;;;;1.52;0.98;;;26.20;50.90;;;;;;5041901;28;20073;-47
2022/08/03 03:25:09;;;;;;;1.55;0.98;;;26.20;50.90;;;;;;5042796;28;20017;-47
2022/08/03 03:27:36;;;;;;;1.42;0.80;;;26.20;50.80;;;;;;5043052;28;20025;-48
2022/08/03 03:30:03;;;;;;;1.70;1.00;;;26.20;50.80;;;;;;5041729;28;20504;-47
2022/08/03 03:32:29;;;;;;;1.33;0.95;;;26.20;50.90;;;;;;5043112;28;20548;-47
2022/08/03 03:34:58;;;;;;;2.00;1.08;;;26.20;50.80;;;;;;5042893;28;20025;-47
2022/08/03 03:37:25;;;;;;;2.03;1.13;;;26.20;50.80;;;;;;5039745;28;20057;-47
2022/08/03 03:39:53;;;;;;;1.58;1.00;;;26.20;50.80;;;;;;5043819;28;20477;-47
2022/08/03 03:42:19;;;;;;;1.80;1.00;;;26.20;50.70;;;;;;5039949;28;20232;-47
2022/08/03 03:44:45;;;;;;;2.40;1.00;;;26.20;50.80;;;;;;5042413;28;20025;-47
2022/08/03 03:47:11;;;;;;;1.70;0.90;;;26.20;51.10;;;;;;5040570;28;20036;-47
2022/08/03 03:49:37;;;;;;;1.90;1.10;;;26.20;50.80;;;;;;5043232;28;20013;-47
2022/08/03 03:52:02;;;;;;;1.70;0.90;;;26.20;50.90;;;;;;5042378;28;20433;-47
2022/08/03 03:54:42;;;;;;;1.83;1.00;;;26.20;50.90;;;;;;5040814;28;20028;-47
2022/08/03 03:57:10;;;;;;;1.83;1.00;;;26.20;50.90;;;;;;5042178;28;20115;-47
2022/08/03 03:59:40;;;;;;;2.00;0.98;;;26.20;51.50;;;;;;5041357;28;20159;-48
2022/08/03 04:02:07;;;;;;;1.50;0.90;;;26.20;50.90;;;;;;5043004;28;20052;-47
2022/08/03 04:12:59;;;;;;;1.60;1.00;;;26.20;50.70;;;;;;5041819;28;20036;-47
2022/08/03 04:15:27;;;;;;;1.73;1.05;;;26.10;50.70;;;;;;5042062;28;20033;-47
2022/08/03 04:17:56;;;;;;;2.63;1.35;;;26.20;50.80;;;;;;5042486;28;20029;-47
2022/08/03 04:20:25;;;;;;;4.15;1.08;;;26.10;50.70;;;;;;5041982;28;20036;-48
2022/08/03 04:22:53;;;;;;;1.45;0.80;;;26.20;50.70;;;;;;5040266;28;20013;-47
2022/08/03 04:25:22;;;;;;;2.38;0.98;;;26.20;50.70;;;;;;5040759;28;20029;-47
2022/08/03 04:27:51;;;;;;;2.60;1.08;;;26.20;50.80;;;;;;5040170;28;20052;-47
2022/08/03 04:30:18;;;;;;;1.83;1.20;;;26.10;50.80;;;;;;5040681;28;20576;-47
2022/08/03 04:32:50;;;;;;;1.73;1.17;;;26.10;50.80;;;;;;5041812;28;20037;-47
2022/08/03 04:35:17;;;;;;;2.08;1.30;;;26.20;50.80;;;;;;5039626;28;20070;-47
2022/08/03 04:37:49;;;;;;;2.05;1.23;;;26.10;50.90;;;;;;5039665;28;20047;-47
2022/08/03 04:40:21;;;;;;;1.70;1.00;;;26.10;50.90;;;;;;5041616;28;20024;-48
2022/08/03 04:42:48;;;;;;;1.95;1.15;;;26.20;50.90;;;;;;5038667;28;20025;-47
2022/08/03 04:45:15;;;;;;;2.50;1.17;;;26.20;50.90;;;;;;5039659;28;20091;-48
2022/08/03 04:47:41;;;;;;;2.72;1.10;;;26.10;51.00;;;;;;5042030;28;20128;-47
2022/08/03 04:50:08;;;;;;;2.55;1.20;;;26.10;50.90;;;;;;5040218;28;20514;-47
2022/08/03 04:52:34;;;;;;;1.67;1.00;;;26.20;51.00;;;;;;5041785;28;20032;-48
2022/08/03 04:54:59;;;;;;;1.95;1.10;;;26.10;51.00;;;;;;5041442;28;20096;-47
2022/08/03 04:57:25;;;;;;;2.20;1.17;;;26.20;51.10;;;;;;5038977;28;20692;-47
2022/08/03 04:59:53;;;;;;;1.50;0.90;;;26.20;51.10;;;;;;5039532;28;20047;-49
2022/08/03 05:02:20;;;;;;;3.17;1.30;;;26.20;51.80;;;;;;5039294;28;20021;-47
2022/08/03 05:04:46;;;;;;;2.10;1.30;;;26.20;51.20;;;;;;5040540;28;20725;-48
2022/08/03 05:07:16;;;;;;;1.40;0.90;;;26.20;51.20;;;;;;5040889;28;20531;-47
2022/08/03 05:09:42;;;;;;;3.05;1.20;;;26.20;51.30;;;;;;5039424;28;20087;-47
2022/08/03 05:12:08;;;;;;;2.33;1.13;;;26.10;51.30;;;;;;5039888;28;20529;-47
2022/08/03 05:14:37;;;;;;;1.80;1.10;;;26.20;51.40;;;;;;5040698;28;20110;-47
2022/08/03 05:17:03;;;;;;;2.78;1.10;;;26.20;51.40;;;;;;5040798;28;20544;-47
2022/08/03 05:19:29;;;;;;;2.35;1.20;;;26.20;52.10;;;;;;5039961;28;20434;-47
2022/08/03 05:21:55;;;;;;;3.15;1.27;;;26.20;51.50;;;;;;5039236;28;20108;-47
2022/08/03 05:24:20;;;;;;;2.35;1.33;;;26.20;51.50;;;;;;5036999;28;20025;-47
2022/08/03 05:26:46;;;;;;;2.13;1.20;;;26.20;51.50;;;;;;5040478;28;20025;-48
2022/08/03 05:29:12;;;;;;;2.25;1.40;;;26.10;51.60;;;;;;5039328;28;20029;-47
2022/08/03 05:31:37;;;;;;;2.20;1.15;;;26.10;51.60;;;;;;5040205;28;20066;-48
2022/08/03 05:34:03;;;;;;;2.30;1.33;;;26.20;51.70;;;;;;5040358;28;20704;-48
2022/08/03 05:36:29;;;;;;;2.47;1.30;;;26.10;51.80;;;;;;5038429;28;20112;-48
2022/08/03 05:38:54;;;;;;;2.28;1.20;;;26.20;51.70;;;;;;5040750;28;20113;-47
2022/08/03 05:41:20;;;;;;;3.40;1.45;;;26.20;51.80;;;;;;5039907;28;20063;-47
2022/08/03 05:43:46;;;;;;;2.88;1.30;;;26.20;51.90;;;;;;5039780;28;20254;-46
2022/08/03 05:46:12;;;;;;;2.72;1.50;;;26.20;51.90;;;;;;5036192;28;20111;-48
2022/08/03 05:48:37;;;;;;;3.20;1.88;;;26.20;52.90;;;;;;5039847;28;20053;-48
2022/08/03 05:51:05;;;;;;;3.10;1.67;;;26.20;53.10;;;;;;5031945;28;20974;-48
2022/08/03 05:53:34;;;;;;;2.30;1.50;;;26.10;53.00;;;;;;5036192;28;20420;-48
2022/08/03 05:55:59;;;;;;;2.53;1.48;;;26.10;53.50;;;;;;5039102;28;20778;-48
2022/08/03 05:58:25;;;;;;;2.15;1.40;;;26.20;53.30;;;;;;5039698;28;20143;-48
2022/08/03 06:00:51;;;;;;;3.08;1.95;;;26.20;53.60;;;;;;5038833;28;20017;-47
2022/08/03 06:03:16;;;;;;;3.80;1.50;;;26.20;53.30;;;;;;5040295;28;20036;-48
2022/08/03 06:05:42;;;;;;;3.13;1.55;;;26.20;53.30;;;;;;5039147;28;20024;-48
2022/08/03 06:08:08;;;;;;;2.85;1.60;;;26.30;53.70;;;;;;5038901;28;20088;-47
2022/08/03 06:10:33;;;;;;;2.75;1.52;;;26.30;53.60;;;;;;5038907;28;20166;-47
2022/08/03 06:12:59;;;;;;;3.22;1.50;;;26.30;53.40;;;;;;5038930;28;20386;-47
2022/08/03 06:15:25;;;;;;;2.28;1.33;;;26.30;53.30;;;;;;5040130;28;20040;-47
2022/08/03 06:17:51;;;;;;;4.60;1.58;;;26.30;53.10;;;;;;5044002;28;20374;-47
2022/08/03 06:20:18;;;;;;;2.83;1.40;;;26.30;52.90;;;;;;5042009;28;20454;-47
2022/08/03 06:22:45;;;;;;;3.00;1.65;;;26.30;52.90;;;;;;5041632;28;20024;-47
2022/08/03 06:25:11;;;;;;;3.88;1.80;;;26.30;53.00;;;;;;5041926;28;20021;-47
2022/08/03 06:27:38;;;;;;;2.67;1.50;;;26.30;53.00;;;;;;5042790;28;20036;-46
2022/08/03 06:30:07;;;;;;;2.65;1.55;;;26.30;53.00;;;;;;5040691;28;20090;-47
2022/08/03 06:32:33;;;;;;;4.10;1.60;;;26.30;53.20;;;;;;5038657;28;20033;-47
2022/08/03 06:34:59;;;;;;;2.47;1.50;;;26.30;53.30;;;;;;5038595;28;20051;-47
2022/08/03 06:37:25;;;;;;;3.15;1.33;;;26.30;53.40;;;;;;5033330;28;20042;-48
2022/08/03 06:39:52;;;;;;;3.35;1.40;;;26.30;53.40;;;;;;5038328;28;20051;-47
2022/08/03 06:42:18;;;;;;;3.70;1.40;;;26.30;53.30;;;;;;5035438;28;20025;-47
2022/08/03 06:44:44;;;;;;;2.55;1.23;;;26.40;53.40;;;;;;5033674;28;20539;-47
2022/08/03 06:47:10;;;;;;;1.75;1.08;;;26.30;53.30;;;;;;5039207;28;20029;-47
2022/08/03 06:49:36;;;;;;;3.08;1.60;;;26.30;53.20;;;;;;5039067;28;20025;-47
2022/08/03 06:52:02;;;;;;;2.30;1.40;;;26.30;53.20;;;;;;5043779;28;20021;-47
2022/08/03 06:54:28;;;;;;;1.95;1.10;;;26.30;53.10;;;;;;5037941;28;20457;-48
2022/08/03 06:56:53;;;;;;;3.17;1.30;;;26.30;53.10;;;;;;5042334;28;20151;-47
2022/08/03 06:59:19;;;;;;;3.20;1.45;;;26.30;53.10;;;;;;5041909;28;20493;-47
2022/08/03 07:01:45;;;;;;;2.47;1.45;;;26.30;53.00;;;;;;5037839;28;20120;-47
2022/08/03 07:04:11;;;;;;;2.28;1.33;;;26.30;53.10;;;;;;5044150;28;20025;-47
2022/08/03 07:06:37;;;;;;;2.53;1.33;;;26.30;53.00;;;;;;5036456;28;20560;-47
2022/08/03 07:09:03;;;;;;;1.95;1.33;;;26.30;53.10;;;;;;5042901;28;20017;-47
2022/08/03 07:11:29;;;;;;;2.50;1.35;;;26.30;53.10;;;;;;5044166;28;20056;-47
2022/08/03 07:13:55;;;;;;;2.50;1.58;;;26.30;53.20;;;;;;5043338;28;20680;-47
2022/08/03 07:16:21;;;;;;;3.90;1.70;;;26.30;53.30;;;;;;5034151;28;20059;-48
2022/08/03 07:18:47;;;;;;;3.25;1.88;;;26.30;53.20;;;;;;5036570;28;20094;-47
2022/08/03 07:21:14;;;;;;;2.83;1.55;;;26.30;53.20;;;;;;5041176;28;20497;-47
2022/08/03 07:23:40;;;;;;;2.90;1.70;;;26.30;53.10;;;;;;5042825;28;20032;-47
2022/08/03 07:26:06;;;;;;;2.67;1.35;;;26.30;53.30;;;;;;5042531;28;20082;-47
2022/08/03 07:28:32;;;;;;;2.72;1.65;;;26.30;53.40;;;;;;5041967;28;20169;-47
2022/08/03 07:30:58;;;;;;;2.47;1.60;;;26.30;53.30;;;;;;5042037;28;20070;-47
2022/08/03 07:33:24;;;;;;;3.30;1.75;;;26.30;53.30;;;;;;5043425;28;20559;-47
2022/08/03 07:35:50;;;;;;;3.40;1.77;;;26.30;53.30;;;;;;5041836;28;20090;-47
2022/08/03 07:38:15;;;;;;;3.95;2.00;;;26.30;53.30;;;;;;5042078;28;20025;-48
2022/08/03 07:40:41;;;;;;;9.57;4.20;;;26.30;53.20;;;;;;5040700;28;20057;-47
2022/08/03 07:43:07;;;;;;;22.00;8.77;;;26.30;53.50;;;;;;5043701;28;20021;-47
2022/08/03 07:45:33;;;;;;;23.05;10.00;;;26.30;53.70;;;;;;5032954;28;20432;-47
2022/08/03 07:47:58;;;;;;;22.83;9.68;;;26.30;53.70;;;;;;5023125;28;20040;-47
2022/08/03 07:50:24;;;;;;;21.33;8.30;;;26.30;53.60;;;;;;5023620;28;20029;-47
2022/08/03 07:52:51;;;;;;;14.65;7.05;;;26.30;54.30;;;;;;5023401;28;20065;-47
2022/08/03 07:55:23;;;;;;;14.90;6.20;;;26.30;53.60;;;;;;5023791;28;20108;-47
2022/08/03 07:58:08;;;;;;;13.75;7.05;;;26.30;53.50;;;;;;5022136;28;20026;-47
2022/08/03 08:00:34;;;;;;;12.35;5.72;;;26.30;53.40;;;;;;5023343;28;20026;-47
2022/08/03 08:03:00;;;;;;;13.95;6.15;;;26.30;53.40;;;;;;5042247;28;20473;-47
2022/08/03 08:05:26;;;;;;;12.73;5.60;;;26.30;53.30;;;;;;5042716;28;20116;-47
2022/08/03 08:07:52;;;;;;;9.68;4.90;;;26.30;53.30;;;;;;5042159;28;20083;-47
2022/08/03 08:10:18;;;;;;;8.13;4.38;;;26.30;53.30;;;;;;5042389;28;20121;-47
2022/08/03 08:12:44;;;;;;;7.63;3.97;;;26.30;53.20;;;;;;5042076;28;20029;-47
2022/08/03 08:15:09;;;;;;;7.85;4.10;;;26.30;53.20;;;;;;5035838;28;20140;-48
2022/08/03 08:17:46;;;;;;;7.28;3.47;;;26.30;53.10;;;;;;5022713;28;20560;-48
2022/08/03 08:20:17;;;;;;;5.75;3.20;;;26.30;53.00;;;;;;5022517;28;20037;-48
2022/08/03 08:22:42;;;;;;;8.45;3.05;;;26.30;53.00;;;;;;5022850;28;20105;-47
2022/08/03 08:25:08;;;;;;;5.82;3.38;;;26.30;52.80;;;;;;5022545;28;20105;-48
2022/08/03 08:27:41;;;;;;;5.32;2.88;;;26.30;52.80;;;;;;5022841;28;20052;-47
2022/08/03 08:30:07;;;;;;;;;;;26.30;52.80;;;;;;5041768;28;20039;-48
2022/08/03 08:32:33;;;;;;;4.90;2.75;;;26.30;52.70;;;;;;5042648;28;19978;-48
2022/08/03 08:34:59;;;;;;;3.58;2.60;;;26.30;52.50;;;;;;5040982;28;20099;-47
2022/08/03 08:37:25;;;;;;;3.50;2.25;;;26.30;52.50;;;;;;5042398;28;20035;-47
2022/08/03 08:39:51;;;;;;;3.08;1.95;;;26.30;52.40;;;;;;5042602;28;20603;-46
2022/08/03 08:42:16;;;;;;;4.63;2.40;;;26.30;52.40;;;;;;5040996;28;20060;-47
2022/08/03 08:44:42;;;;;;;3.92;2.08;;;26.30;52.00;;;;;;5040292;28;20033;-47
2022/08/03 08:47:08;;;;;;;4.15;2.17;;;26.30;51.90;;;;;;5022596;28;20101;-47
2022/08/03 08:49:36;;;;;;;3.40;2.20;;;26.30;52.10;;;;;;5022843;28;20108;-47
2022/08/03 08:52:04;;;;;;;4.20;2.08;;;26.30;52.10;;;;;;5021602;28;20037;-47
2022/08/03 08:54:32;;;;;;;4.20;2.15;;;26.30;52.10;;;;;;5021821;28;20128;-46
2022/08/03 08:57:01;;;;;;;4.20;2.33;;;26.30;52.00;;;;;;5021840;28;20037;-46
2022/08/03 08:59:27;;;;;;;4.53;1.90;;;26.30;51.60;;;;;;5032938;28;20021;-48
2022/08/03 09:01:57;;;;;;;3.53;2.10;;;26.30;51.40;;;;;;5042532;28;20036;-47
2022/08/03 09:04:23;;;;;;;4.13;2.25;;;26.30;51.10;;;;;;5039642;28;20040;-47
2022/08/03 09:06:49;;;;;;;3.53;2.17;;;26.30;51.10;;;;;;5040241;28;20134;-48
2022/08/03 09:09:15;;;;;;;3.17;2.15;;;26.30;50.60;;;;;;5042003;28;20036;-47
2022/08/03 09:11:44;;;;;;;3.47;1.90;;;26.30;50.50;;;;;;5025715;28;20029;-47
2022/08/03 09:14:10;;;;;;;3.15;1.80;;;26.30;51.50;;;;;;5021308;28;20397;-48
2022/08/03 09:16:36;;;;;;;4.25;1.92;;;26.30;51.30;;;;;;5020991;28;20036;-47
2022/08/03 09:19:12;;;;;;;3.75;1.88;;;26.30;52.00;;;;;;5021309;28;20025;-48
2022/08/03 09:21:39;;;;;;;5.28;2.05;;;26.30;51.00;;;;;;5021534;28;20028;-48
2022/08/03 09:24:05;;;;;;;4.00;1.98;;;26.30;50.90;;;;;;5023260;28;20133;-48
2022/08/03 09:26:34;;;;;;;3.53;2.00;;;26.40;50.30;;;;;;5025187;28;20305;-48
2022/08/03 09:29:03;;;;;;;3.63;1.95;;;26.40;50.90;;;;;;5035046;28;20053;-48
2022/08/03 09:31:37;;;;;;;3.08;1.83;;;26.40;49.80;;;;;;5035423;28;20093;-47
2022/08/03 09:34:05;;;;;;;3.95;1.95;;;26.40;49.90;;;;;;5040779;28;20114;-47
2022/08/03 09:36:49;;;;;;;3.38;1.92;;;26.40;50.60;;;;;;5038780;28;20033;-47
2022/08/03 09:39:18;;;;;;;3.30;1.70;;;26.40;50.70;;;;;;5033573;28;20725;-47
2022/08/03 09:41:46;;;;;;;4.28;2.03;;;26.40;50.50;;;;;;5029744;28;20025;-47
2022/08/03 09:44:12;;;;;;;3.75;1.80;;;26.40;50.50;;;;;;5032122;28;20033;-48
2022/08/03 09:46:50;;;;;;;3.55;1.90;;;26.40;50.50;;;;;;5023945;28;20449;-48
2022/08/03 09:49:16;;;;;;;3.30;1.80;;;26.40;50.30;;;;;;5022257;28;20026;-48
2022/08/03 09:51:43;;;;;;;3.22;1.88;;;26.40;50.30;;;;;;5025692;28;20563;-47
2022/08/03 09:54:09;;;;;;;2.67;1.80;;;26.40;49.30;;;;;;5022507;28;20049;-47
2022/08/03 09:56:46;;;;;;;3.55;2.30;;;26.40;50.00;;;;;;5038044;28;20736;-47
2022/08/03 09:59:21;;;;;;;3.15;1.83;;;26.40;50.60;;;;;;5045576;28;20095;-47
2022/08/03 10:01:48;;;;;;;3.30;1.90;;;26.40;50.40;;;;;;5037262;28;20114;-46
2022/08/03 10:04:15;;;;;;;3.33;2.05;;;26.40;49.80;;;;;;5045281;28;20900;-47
2022/08/03 10:07:00;;;;;;;3.30;1.83;;;26.40;50.10;;;;;;5045364;28;20029;-48
2022/08/03 10:09:26;;;;;;;3.75;1.70;;;26.40;50.20;;;;;;5045478;28;20082;-47
2022/08/03 10:11:52;;;;;;;5.03;1.80;;;26.40;50.20;;;;;;5045363;28;20017;-47
2022/08/03 10:14:18;;;;;;;3.30;1.55;;;26.40;49.10;;;;;;5045471;28;20124;-47
2022/08/03 10:16:45;;;;;;;3.47;1.80;;;26.40;48.10;;;;;;5038619;28;20110;-47
2022/08/03 10:19:12;;;;;;;3.97;1.98;;;26.50;48.30;;;;;;5045579;28;20025;-47
2022/08/03 10:21:40;;;;;;;3.28;1.70;;;26.50;48.50;;;;;;5040466;28;20029;-47
2022/08/03 10:24:08;;;;;;;3.50;1.65;;;26.50;48.60;;;;;;5045243;28;20025;-47
2022/08/03 10:26:38;;;;;;;3.08;1.77;;;26.50;48.30;;;;;;5043400;28;20592;-48
2022/08/03 10:29:23;;;;;;;4.15;1.80;;;26.50;48.60;;;;;;5045183;28;20039;-46
2022/08/03 10:31:53;;;;;;;2.60;1.50;;;26.50;48.40;;;;;;5027153;28;20041;-47
2022/08/03 10:34:22;;;;;;;2.33;1.42;;;26.50;47.90;;;;;;5024604;28;20087;-47
2022/08/03 10:36:50;;;;;;;2.75;1.42;;;26.60;47.70;;;;;;5024814;28;20493;-47
2022/08/03 10:39:20;;;;;;;2.58;1.38;;;26.50;46.10;;;;;;5024867;28;20038;-48
2022/08/03 10:41:48;;;;;;;3.28;1.83;;;26.60;47.10;;;;;;5025685;28;20079;-47
2022/08/03 10:44:18;;;;;;;3.20;1.52;;;26.60;45.90;;;;;;5023415;28;20075;-47
2022/08/03 10:46:46;;;;;;;2.60;1.45;;;26.60;47.20;;;;;;5024240;28;20547;-48
2022/08/03 10:49:13;;;;;;;3.58;1.85;;;26.60;47.50;;;;;;5029342;28;20033;-47
2022/08/03 10:51:40;;;;;;;2.60;1.73;;;26.60;47.40;;;;;;5028871;28;20023;-47
2022/08/03 10:54:06;;;;;;;3.45;1.88;;;26.60;46.00;;;;;;5027706;28;20028;-46
2022/08/03 10:59:35;;;;;;;4.85;1.85;;;26.70;45.80;;;;;;5024702;28;20047;-48
2022/08/03 11:02:01;;;;;;;2.60;1.58;;;26.70;44.40;;;;;;5041538;28;20067;-47
2022/08/03 11:04:28;;;;;;;3.25;1.95;;;26.70;43.90;;;;;;5044804;28;20540;-47
2022/08/03 11:07:23;;;;;;;4.40;1.98;;;26.80;43.70;;;;;;5037944;28;20420;-47
2022/08/03 11:09:55;;;;;;;4.18;2.08;;;26.80;45.10;;;;;;5024671;28;20030;-47
2022/08/03 11:12:23;;;;;;;2.67;1.63;;;26.80;44.90;;;;;;5031061;28;20112;-47
2022/08/03 11:14:49;;;;;;;2.42;1.35;;;26.80;44.90;;;;;;5042275;28;20037;-47
2022/08/03 11:17:15;;;;;;;2.40;1.48;;;26.80;45.50;;;;;;5028081;28;20711;-47
2022/08/03 11:19:46;;;;;;;3.10;1.50;;;26.80;46.70;;;;;;5044104;28;20028;-47
2022/08/03 11:22:12;;;;;;;2.83;1.58;;;26.90;45.80;;;;;;5043165;28;20021;-47
2022/08/03 11:24:42;;;;;;;2.65;1.77;;;26.90;45.20;;;;;;5027785;28;20109;-47
2022/08/03 11:27:20;;;;;;;3.45;1.60;;;26.90;46.80;;;;;;5035097;28;20041;-47
2022/08/03 11:30:10;;;;;;;2.38;1.50;;;26.90;45.90;;;;;;5034028;28;20032;-47
2022/08/03 11:35:22;;;;;;;2.72;1.63;;;26.90;46.50;;;;;;5041705;28;20537;-48
2022/08/03 11:37:57;;;;;;;2.60;1.60;;;26.90;45.70;;;;;;5037701;28;20485;-48
2022/08/03 11:40:45;;;;;;;2.63;1.45;;;26.90;46.60;;;;;;5041670;28;20265;-47
2022/08/03 11:43:29;;;;;;;2.75;1.50;;;26.90;47.00;;;;;;5042669;28;20029;-48
2022/08/03 11:46:04;;;;;;;4.25;1.67;;;26.90;46.40;;;;;;5040571;28;20068;-47
2022/08/03 11:48:44;;;;;;;2.70;1.50;;;26.90;46.00;;;;;;5043044;28;20398;-48
2022/08/03 11:51:27;;;;;;;2.72;1.48;;;26.90;46.10;;;;;;5042805;28;20033;-47
2022/08/03 11:54:04;;;;;;;2.80;1.50;;;26.90;46.10;;;;;;5043131;28;20035;-47
2022/08/03 11:56:49;;;;;;;2.67;1.58;;;26.90;44.40;;;;;;5043006;28;20093;-47
2022/08/03 11:59:17;;;;;;;2.28;1.40;;;26.90;45.50;;;;;;5042616;28;20124;-47
2022/08/03 12:01:44;;;;;;;3.20;1.52;;;26.90;45.70;;;;;;5030379;28;20065;-47
2022/08/03 12:04:10;;;;;;;2.10;1.38;;;27.00;45.90;;;;;;5027018;28;20029;-48
2022/08/03 12:06:54;;;;;;;2.33;1.20;;;27.00;46.40;;;;;;5023129;28;20022;-47
2022/08/03 12:09:20;;;;;;;2.88;1.60;;;27.00;45.40;;;;;;5023399;28;20486;-47
2022/08/03 12:11:50;;;;;;;3.33;1.30;;;27.00;45.40;;;;;;5022815;28;20029;-47
2022/08/03 12:14:17;;;;;;;2.30;1.30;;;27.10;45.50;;;;;;5023021;28;20064;-47
2022/08/03 12:16:47;;;;;;;2.65;1.38;;;27.00;45.80;;;;;;5021908;28;20041;-47
2022/08/03 12:19:13;;;;;;;2.80;1.40;;;27.10;45.80;;;;;;5038159;28;20108;-47
2022/08/03 12:21:47;;;;;;;2.35;1.33;;;27.10;43.40;;;;;;5042570;28;20100;-47
2022/08/03 12:24:12;;;;;;;2.63;1.20;;;27.10;43.00;;;;;;5042745;28;20029;-48
2022/08/03 12:26:48;;;;;;;2.28;1.30;;;27.10;43.90;;;;;;5040060;28;20033;-47
2022/08/03 12:29:17;;;;;;;1.98;1.20;;;27.10;41.70;;;;;;5037144;28;20261;-47
2022/08/03 12:31:43;;;;;;;1.73;1.10;;;27.10;44.80;;;;;;5027071;28;20026;-49
2022/08/03 12:34:08;;;;;;;2.92;1.88;;;27.20;44.90;;;;;;5038480;28;20025;-48
2022/08/03 12:36:35;;;;;;;3.70;1.70;;;27.20;44.70;;;;;;5029424;28;20029;-47
2022/08/03 12:39:04;;;;;;;3.60;1.65;;;27.20;46.80;;;;;;5035027;28;20029;-48
2022/08/03 12:41:33;;;;;;;2.47;1.33;;;27.30;45.10;;;;;;5041285;28;20090;-48
2022/08/03 12:44:02;;;;;;;2.97;1.80;;;27.30;45.60;;;;;;5025643;28;20320;-47
2022/08/03 12:46:34;;;;;;;3.08;1.45;;;27.40;45.70;;;;;;5036629;28;20362;-47
2022/08/03 12:49:02;;;;;;;2.58;1.55;;;27.30;43.80;;;;;;5041513;28;20705;-47
2022/08/03 12:51:29;;;;;;;2.67;1.50;;;27.40;44.50;;;;;;5038555;28;20523;-48
2022/08/03 12:53:57;;;;;;;3.05;1.63;;;27.40;44.20;;;;;;5041747;28;20021;-47
2022/08/03 12:56:23;;;;;;;2.28;1.17;;;27.40;44.70;;;;;;5041520;28;20083;-47
2022/08/03 12:58:49;;;;;;;1.88;1.02;;;27.40;43.40;;;;;;5040787;28;20056;-47
2022/08/03 13:01:16;;;;;;;2.30;1.30;;;27.40;44.80;;;;;;5039129;28;20056;-48
2022/08/03 13:03:49;;;;;;;2.40;1.05;;;27.40;43.10;;;;;;5039341;28;20043;-47
2022/08/03 13:06:18;;;;;;;3.35;1.30;;;27.50;43.30;;;;;;5037481;28;20022;-47